createdAt,value
2018-01-21T00:51:24.666Z,14.75
2018-01-21T00:53:52.993Z,18.87
2018-01-21T00:56:21.309Z,17.98
2018-01-21T00:58:49.658Z,12.88
2018-01-21T01:01:17.990Z,14.68
2018-01-21T01:03:46.321Z,25.02
2018-01-21T01:06:14.650Z,23.10
2018-01-21T01:08:42.991Z,21.98
2018-01-21T01:11:11.307Z,19.77
2018-01-21T01:13:39.655Z,19.50
2018-01-21T01:16:07.974Z,15.55
2018-01-21T01:18:36.317Z,27.77
2018-01-21T01:21:04.634Z,11.75
2018-01-21T01:23:32.970Z,15.73
2018-01-21T01:26:01.286Z,22.77
2018-01-21T01:28:29.618Z,38.28
2018-01-21T01:30:57.935Z,17.00
2018-01-21T01:33:26.273Z,16.95
2018-01-21T01:35:54.587Z,16.42
2018-01-21T01:38:22.913Z,14.57
2018-01-21T01:40:51.225Z,22.87
2018-01-21T01:43:19.565Z,16.70
2018-01-21T01:45:47.882Z,16.73
2018-01-21T01:48:16.271Z,17.25
2018-01-21T01:50:44.562Z,17.50
2018-01-21T01:53:12.898Z,17.80
2018-01-21T01:55:41.210Z,15.70
2018-01-21T01:58:09.554Z,14.57
2018-01-21T02:00:37.875Z,14.38
2018-01-21T02:03:06.215Z,19.40
2018-01-21T02:05:34.519Z,18.85
2018-01-21T02:08:02.849Z,18.30
2018-01-21T02:10:31.165Z,13.90
2018-01-21T02:12:59.502Z,16.75
2018-01-21T02:15:27.833Z,26.12
2018-01-21T02:17:56.154Z,25.35
2018-01-21T02:20:24.460Z,14.45
2018-01-21T02:22:52.797Z,12.80
2018-01-21T02:25:21.109Z,12.75
2018-01-21T02:27:49.442Z,15.90
2018-01-21T02:30:17.754Z,18.30
2018-01-21T02:32:46.086Z,18.62
2018-01-21T02:35:14.390Z,21.45
2018-01-21T02:37:42.701Z,19.00
2018-01-21T02:40:11.037Z,13.98
2018-01-21T02:42:39.354Z,27.30
2018-01-21T02:45:07.694Z,23.67
2018-01-21T02:47:36.002Z,25.40
2018-01-21T02:50:04.330Z,19.55
2018-01-21T02:52:32.642Z,14.00
2018-01-21T02:55:00.982Z,17.65
2018-01-21T02:57:29.297Z,15.70
2018-01-21T02:59:57.630Z,11.70
2018-01-21T03:02:25.942Z,17.85
2018-01-21T03:04:54.281Z,17.40
2018-01-21T03:07:22.598Z,17.75
2018-01-21T03:09:50.941Z,13.38
2018-01-21T03:12:19.254Z,14.10
2018-01-21T03:14:47.607Z,19.75
2018-01-21T03:17:15.946Z,20.52
2018-01-21T03:19:44.289Z,25.83
2018-01-21T03:22:12.611Z,16.62
2018-01-21T03:24:40.951Z,13.45
2018-01-21T03:27:09.257Z,17.77
2018-01-21T03:29:37.589Z,16.85
2018-01-21T03:32:05.915Z,21.67
2018-01-21T03:34:34.254Z,31.90
2018-01-21T03:37:02.581Z,22.25
2018-01-21T03:39:30.922Z,17.23
2018-01-21T03:41:59.237Z,23.02
2018-01-21T03:44:27.572Z,21.65
2018-01-21T03:46:55.885Z,15.05
2018-01-21T03:49:24.226Z,20.40
2018-01-21T03:51:52.558Z,17.25
2018-01-21T03:54:20.905Z,25.40
2018-01-21T03:56:49.233Z,24.95
2018-01-21T03:59:17.585Z,24.95
2018-01-21T04:01:45.905Z,27.33
2018-01-21T04:04:14.260Z,25.17
2018-01-21T04:06:42.589Z,28.05
2018-01-21T04:09:10.986Z,28.38
2018-01-21T04:11:39.329Z,28.05
2018-01-21T04:14:07.693Z,27.37
2018-01-21T04:16:36.085Z,37.20
2018-01-21T04:19:04.434Z,30.33
2018-01-21T04:21:32.757Z,34.75
2018-01-21T04:24:01.114Z,28.70
2018-01-21T04:26:29.493Z,24.45
2018-01-21T04:28:57.837Z,22.25
2018-01-21T04:31:26.249Z,20.15
2018-01-21T04:33:54.593Z,20.05
2018-01-21T04:36:22.918Z,22.80
2018-01-21T04:38:51.233Z,15.23
2018-01-21T04:41:19.578Z,21.12
2018-01-21T04:43:47.930Z,13.95
2018-01-21T04:46:16.274Z,18.33
2018-01-21T04:48:44.686Z,20.17
2018-01-21T04:51:13.025Z,22.08
2018-01-21T04:53:41.345Z,21.00
2018-01-21T04:56:09.713Z,18.10
2018-01-21T04:58:38.085Z,20.50
2018-01-21T05:01:06.434Z,22.92
2018-01-21T05:03:34.825Z,18.15
2018-01-21T05:06:03.226Z,22.55
2018-01-21T05:08:31.601Z,20.95
2018-01-21T05:10:59.977Z,25.58
2018-01-21T05:13:28.292Z,18.27
2018-01-21T05:15:56.638Z,20.08
2018-01-21T05:18:24.964Z,18.85
2018-01-21T05:20:53.313Z,29.30
2018-01-21T05:23:21.633Z,20.35
2018-01-21T05:25:49.981Z,22.77
2018-01-21T05:28:18.414Z,23.77
2018-01-21T05:30:46.789Z,24.90
2018-01-21T05:33:15.121Z,24.50
2018-01-21T05:35:43.469Z,26.83
2018-01-21T05:38:11.813Z,27.23
2018-01-21T05:40:40.152Z,26.00
2018-01-21T05:43:10.009Z,30.43
2018-01-21T05:45:38.364Z,29.40
2018-01-21T05:48:06.685Z,27.90
2018-01-21T05:50:35.965Z,32.10
2018-01-21T05:53:04.341Z,27.90
2018-01-21T05:55:33.261Z,25.00
2018-01-21T05:58:01.606Z,32.07
2018-01-21T06:00:29.985Z,30.77
2018-01-21T06:02:58.357Z,23.00
2018-01-21T06:05:26.790Z,32.90
2018-01-21T06:07:55.113Z,31.47
2018-01-21T06:10:23.469Z,32.97
2018-01-21T06:12:51.797Z,36.58
2018-01-21T06:15:20.145Z,34.40
2018-01-21T06:17:48.517Z,30.83
2018-01-21T06:20:16.865Z,27.73
2018-01-21T06:22:45.202Z,31.90
2018-01-21T06:25:13.557Z,33.83
2018-01-21T06:27:41.885Z,24.37
2018-01-21T06:30:10.237Z,26.67
2018-01-21T06:32:38.578Z,31.03
2018-01-21T06:35:06.933Z,31.60
2018-01-21T06:37:35.262Z,35.53
2018-01-21T06:40:04.414Z,33.45
2018-01-21T06:42:32.745Z,40.53
2018-01-21T06:45:01.069Z,35.20
2018-01-21T06:47:29.428Z,37.45
2018-01-21T06:49:57.758Z,37.37
2018-01-21T06:52:26.118Z,33.42
2018-01-21T06:54:54.445Z,37.80
2018-01-21T06:57:22.797Z,32.03
2018-01-21T06:59:51.127Z,33.77
2018-01-21T07:02:19.477Z,33.25
2018-01-21T07:04:47.815Z,34.80
2018-01-21T07:07:16.171Z,35.77
2018-01-21T07:09:44.505Z,38.40
2018-01-21T07:12:12.850Z,31.17
2018-01-21T07:14:41.190Z,38.40
2018-01-21T07:17:09.596Z,39.33
2018-01-21T07:19:37.931Z,42.23
2018-01-21T07:22:06.277Z,32.97
2018-01-21T07:24:34.611Z,41.57
2018-01-21T07:27:02.970Z,31.75
2018-01-21T07:29:31.318Z,38.60
2018-01-21T07:31:59.674Z,36.00
2018-01-21T07:34:28.007Z,32.50
2018-01-21T07:36:56.362Z,33.80
2018-01-21T07:39:24.697Z,33.13
2018-01-21T07:41:53.058Z,33.33
2018-01-21T07:44:21.382Z,33.57
2018-01-21T07:46:49.735Z,34.27
2018-01-21T07:49:18.071Z,29.85
2018-01-21T07:51:46.423Z,31.77
2018-01-21T07:54:14.759Z,32.93
2018-01-21T07:56:43.114Z,31.73
2018-01-21T07:59:11.453Z,33.93
2018-01-21T08:01:39.805Z,35.23
2018-01-21T08:04:08.147Z,28.92
2018-01-21T08:06:36.505Z,32.65
2018-01-21T08:09:04.833Z,28.80
2018-01-21T08:11:33.191Z,35.65
2018-01-21T08:14:01.518Z,32.00
2018-01-21T08:16:29.885Z,33.90
2018-01-21T08:18:58.227Z,34.63
2018-01-21T08:21:26.579Z,29.33
2018-01-21T08:23:54.938Z,37.45
2018-01-21T08:26:23.289Z,41.70
2018-01-21T08:28:51.686Z,34.30
2018-01-21T08:31:20.038Z,37.25
2018-01-21T08:33:53.938Z,45.40
2018-01-21T08:36:27.949Z,34.47
2018-01-21T08:39:01.994Z,49.80
2018-01-21T08:44:36.021Z,37.80
2018-01-21T08:47:04.370Z,36.40
2018-01-21T08:49:32.706Z,35.00
2018-01-21T08:52:01.058Z,35.40
2018-01-21T08:54:29.389Z,30.13
2018-01-21T08:56:57.809Z,37.53
2018-01-21T08:59:26.144Z,34.80
2018-01-21T09:01:54.498Z,30.63
2018-01-21T09:04:22.836Z,36.20
2018-01-21T09:06:51.266Z,32.78
2018-01-21T09:09:19.601Z,40.53
2018-01-21T09:11:48.310Z,40.90
2018-01-21T09:14:18.129Z,36.60
2018-01-21T09:16:48.163Z,41.50
2018-01-21T09:19:16.469Z,33.77
2018-01-21T09:21:44.821Z,32.93
2018-01-21T09:24:13.950Z,38.50
2018-01-21T09:26:45.220Z,33.85
2018-01-21T09:29:13.569Z,28.50
2018-01-21T09:31:41.925Z,25.15
2018-01-21T09:34:10.276Z,29.53
2018-01-21T09:36:38.601Z,57.73
2018-01-21T09:39:06.981Z,38.70
2018-01-21T09:41:35.312Z,39.77
2018-01-21T09:44:03.729Z,29.53
2018-01-21T09:46:32.106Z,30.83
2018-01-21T09:49:00.503Z,25.02
2018-01-21T09:51:29.066Z,24.37
2018-01-21T09:53:57.417Z,31.90
2018-01-21T09:56:25.741Z,26.30
2018-01-21T09:58:54.085Z,24.67
2018-01-21T10:01:22.541Z,21.42
2018-01-21T10:03:50.953Z,20.90
2018-01-21T10:06:19.273Z,19.10
2018-01-21T10:08:47.620Z,24.65
2018-01-21T10:11:15.961Z,19.75
2018-01-21T10:13:44.357Z,26.33
2018-01-21T10:16:12.708Z,18.83
2018-01-21T10:18:41.279Z,17.03
2018-01-21T10:21:09.585Z,24.97
2018-01-21T10:23:37.977Z,24.60
2018-01-21T10:26:07.276Z,21.07
2018-01-21T10:28:35.669Z,17.67
2018-01-21T10:31:03.994Z,17.02
2018-01-21T10:33:32.403Z,26.33
2018-01-21T10:36:02.530Z,23.58
2018-01-21T10:38:30.869Z,14.97
2018-01-21T10:40:59.224Z,19.57
2018-01-21T10:43:27.742Z,17.23
2018-01-21T10:45:56.062Z,19.40
2018-01-21T10:48:24.408Z,14.47
2018-01-21T10:50:52.786Z,23.33
2018-01-21T10:53:21.106Z,23.33
2018-01-21T10:55:50.457Z,25.63
2018-01-21T10:58:18.805Z,20.70
2018-01-21T11:00:52.742Z,19.27
2018-01-21T11:03:21.121Z,21.83
2018-01-21T11:05:49.446Z,19.33
2018-01-21T11:08:17.790Z,30.83
2018-01-21T11:10:46.114Z,23.17
2018-01-21T11:13:14.453Z,18.55
2018-01-21T11:15:43.681Z,18.42
2018-01-21T11:18:12.025Z,61.17
2018-01-21T11:20:41.298Z,51.05
2018-01-21T11:23:09.645Z,34.60
2018-01-21T11:25:38.049Z,27.53
2018-01-21T11:28:06.398Z,32.40
2018-01-21T11:30:34.725Z,22.63
2018-01-21T11:33:03.079Z,21.83
2018-01-21T11:35:31.406Z,23.77
2018-01-21T11:37:59.748Z,25.10
2018-01-21T11:40:28.778Z,25.03
2018-01-21T11:42:57.120Z,23.43
2018-01-21T11:45:25.480Z,28.67
2018-01-21T11:47:53.986Z,26.40
2018-01-21T11:50:22.485Z,34.90
2018-01-21T11:52:50.818Z,26.60
2018-01-21T11:55:19.243Z,27.08
2018-01-21T11:57:47.621Z,30.70
2018-01-21T12:00:15.996Z,26.87
2018-01-21T12:02:44.421Z,35.30
2018-01-21T12:05:12.766Z,44.87
2018-01-21T12:07:41.173Z,28.73
2018-01-21T12:10:09.570Z,28.30
2018-01-21T12:12:37.894Z,41.63
2018-01-21T12:15:06.366Z,29.40
2018-01-21T12:17:34.698Z,30.27
2018-01-21T12:20:03.042Z,28.83
2018-01-21T12:22:31.494Z,24.73
2018-01-21T12:24:59.848Z,30.57
2018-01-21T12:27:28.190Z,32.13
2018-01-21T12:29:56.573Z,27.37
2018-01-21T12:32:24.935Z,28.83
2018-01-21T12:34:53.333Z,18.33
2018-01-21T12:37:21.849Z,23.00
2018-01-21T12:39:50.961Z,42.78
2018-01-21T12:42:19.297Z,27.40
2018-01-21T12:44:47.657Z,22.50
2018-01-21T12:47:15.991Z,23.25
2018-01-21T12:49:44.407Z,19.73
2018-01-21T12:52:12.790Z,24.73
2018-01-21T12:54:41.134Z,29.37
2018-01-21T12:57:09.549Z,24.43
2018-01-21T12:59:38.589Z,24.45
2018-01-21T13:02:07.009Z,28.83
2018-01-21T13:04:35.389Z,26.17
2018-01-21T13:07:03.714Z,26.20
2018-01-21T13:09:32.061Z,30.63
2018-01-21T13:12:00.389Z,29.53
2018-01-21T13:14:28.792Z,30.45
2018-01-21T13:16:57.124Z,39.50
2018-01-21T13:19:25.533Z,26.50
2018-01-21T13:21:53.861Z,42.70
2018-01-21T13:24:22.197Z,27.60
2018-01-21T13:26:50.545Z,32.93
2018-01-21T13:29:18.953Z,35.47
2018-01-21T13:31:47.329Z,22.73
2018-01-21T13:34:15.665Z,26.60
2018-01-21T13:36:44.030Z,27.87
2018-01-21T13:39:13.029Z,37.73
2018-01-21T13:41:41.381Z,37.30
2018-01-21T13:44:09.712Z,31.37
2018-01-21T13:46:38.088Z,29.87
2018-01-21T13:49:06.486Z,33.07
2018-01-21T13:51:34.861Z,38.20
2018-01-21T13:54:03.237Z,33.57
2018-01-21T13:56:31.585Z,40.13
2018-01-21T13:58:59.918Z,109.37
2018-01-21T14:01:28.281Z,100.33
2018-01-21T14:03:56.609Z,69.63
2018-01-21T14:06:24.934Z,65.93
2018-01-21T14:08:53.290Z,56.50
2018-01-21T14:11:21.609Z,70.20
2018-01-21T14:13:49.962Z,32.60
2018-01-21T14:16:18.325Z,24.83
2018-01-21T14:18:47.522Z,17.95
2018-01-21T14:21:15.840Z,14.70
2018-01-21T14:23:44.181Z,12.00
2018-01-21T14:26:12.505Z,11.73
2018-01-21T14:28:40.934Z,11.90
2018-01-21T14:31:09.305Z,11.50
2018-01-21T14:33:37.648Z,15.73
2018-01-21T14:36:06.062Z,13.30
2018-01-21T14:38:34.407Z,13.70
2018-01-21T14:41:02.798Z,12.75
2018-01-21T14:43:31.143Z,11.07
2018-01-21T14:45:59.573Z,11.70
2018-01-21T14:48:27.929Z,12.90
2018-01-21T14:50:56.249Z,13.40
2018-01-21T14:53:24.623Z,12.63
2018-01-21T14:55:52.962Z,16.05
2018-01-21T14:58:21.789Z,16.30
2018-01-21T15:00:50.256Z,14.80
2018-01-21T15:03:18.561Z,17.90
2018-01-21T15:05:47.913Z,17.60
2018-01-21T15:08:16.245Z,15.13
2018-01-21T15:10:44.692Z,9.70
2018-01-21T15:13:13.050Z,9.00
2018-01-21T15:15:45.704Z,11.90
2018-01-21T15:18:18.657Z,14.20
2018-01-21T15:20:46.989Z,9.83
2018-01-21T15:23:15.361Z,9.37
2018-01-21T15:25:43.722Z,10.33
2018-01-21T15:28:12.045Z,12.50
2018-01-21T15:30:40.502Z,11.43
2018-01-21T15:33:08.873Z,20.73
2018-01-21T15:35:37.307Z,16.67
2018-01-21T15:38:05.675Z,10.50
2018-01-21T15:40:33.994Z,22.50
2018-01-21T15:43:02.364Z,10.55
2018-01-21T15:45:30.858Z,13.37
2018-01-21T15:47:59.226Z,16.67
2018-01-21T15:50:27.553Z,12.60
2018-01-21T15:52:55.897Z,11.93
2018-01-21T15:55:24.225Z,11.00
2018-01-21T15:57:52.577Z,10.77
2018-01-21T16:00:20.897Z,10.15
2018-01-21T16:02:49.246Z,12.60
2018-01-21T16:05:17.560Z,6.50
2018-01-21T16:07:45.902Z,11.83
2018-01-21T16:10:14.230Z,12.03
2018-01-21T16:12:42.595Z,12.70
2018-01-21T16:15:10.913Z,17.53
2018-01-21T16:17:39.251Z,9.43
2018-01-21T16:20:07.574Z,13.85
2018-01-21T16:22:35.960Z,10.17
2018-01-21T16:25:04.246Z,14.23
2018-01-21T16:27:32.626Z,18.50
2018-01-21T16:30:00.949Z,13.70
2018-01-21T16:32:29.397Z,11.52
2018-01-21T16:34:57.719Z,13.20
2018-01-21T16:37:37.793Z,10.70
2018-01-21T16:40:06.118Z,8.97
2018-01-21T16:42:34.462Z,14.87
2018-01-21T16:45:02.793Z,13.18
2018-01-21T16:47:31.170Z,12.30
2018-01-21T16:50:00.377Z,16.20
2018-01-21T16:52:28.729Z,12.60
2018-01-21T16:54:57.062Z,11.10
2018-01-21T16:57:25.383Z,12.10
2018-01-21T16:59:53.738Z,8.00
2018-01-21T17:02:22.226Z,15.77
2018-01-21T17:04:50.569Z,16.77
2018-01-21T17:07:18.890Z,7.63
2018-01-21T17:09:47.232Z,10.53
2018-01-21T17:12:15.562Z,14.43
2018-01-21T17:14:43.967Z,11.50
2018-01-21T17:17:12.304Z,10.17
2018-01-21T17:19:40.642Z,21.45
2018-01-21T17:22:09.260Z,14.80
2018-01-21T17:24:37.633Z,10.20
2018-01-21T17:27:05.959Z,9.33
2018-01-21T17:29:34.980Z,15.70
2018-01-21T17:32:03.378Z,18.48
2018-01-21T17:34:31.733Z,13.83
2018-01-21T17:37:00.146Z,15.70
2018-01-21T17:39:28.509Z,13.23
2018-01-21T17:41:56.903Z,9.60
2018-01-21T17:44:25.262Z,11.27
2018-01-21T17:46:53.598Z,11.05
2018-01-21T17:49:22.509Z,8.73
2018-01-21T17:51:50.846Z,7.80
2018-01-21T17:54:19.246Z,16.13
2018-01-21T17:56:47.587Z,10.77
2018-01-21T17:59:15.911Z,17.97
2018-01-21T18:01:44.242Z,10.53
2018-01-21T18:04:12.578Z,9.07
2018-01-21T18:06:40.898Z,14.47
2018-01-21T18:09:09.361Z,26.77
2018-01-21T18:11:37.685Z,16.17
2018-01-21T18:14:06.037Z,12.83
2018-01-21T18:16:34.357Z,15.23
2018-01-21T18:19:02.729Z,15.73
2018-01-21T18:21:31.245Z,18.48
2018-01-21T18:24:00.494Z,10.30
2018-01-21T18:26:28.867Z,10.98
2018-01-21T18:28:58.448Z,10.20
2018-01-21T18:31:30.326Z,14.30
2018-01-21T18:33:59.912Z,13.70
2018-01-21T18:36:29.736Z,19.33
2018-01-21T18:38:58.213Z,20.48
2018-01-21T18:41:26.569Z,16.43
2018-01-21T18:43:54.910Z,15.25
2018-01-21T18:46:23.250Z,17.60
2018-01-21T18:48:52.546Z,18.10
2018-01-21T18:51:20.921Z,22.77
2018-01-21T18:53:49.277Z,13.33
2018-01-21T18:56:17.621Z,17.27
2018-01-21T18:58:45.981Z,10.90
2018-01-21T19:01:14.333Z,14.43
2018-01-21T19:03:42.785Z,13.15
2018-01-21T19:06:11.170Z,19.03
2018-01-21T19:08:40.320Z,12.57
2018-01-21T19:11:09.931Z,13.30
2018-01-21T19:13:38.542Z,14.73
2018-01-21T19:16:06.953Z,13.10
2018-01-21T19:18:35.255Z,14.25
2018-01-21T19:21:03.598Z,12.70
2018-01-21T19:23:32.053Z,13.03
2018-01-21T19:26:01.394Z,12.07
2018-01-21T19:28:29.736Z,11.30
2018-01-21T19:30:58.097Z,16.05
2018-01-21T19:33:26.435Z,11.60
2018-01-21T19:35:55.770Z,15.68
2018-01-21T19:38:29.550Z,9.17
2018-01-21T19:44:15.634Z,21.15
2018-01-21T19:46:44.143Z,13.37
2018-01-21T19:49:12.507Z,9.27
2018-01-21T19:51:40.868Z,12.73
2018-01-21T19:54:09.177Z,14.27
2018-01-21T19:56:37.751Z,9.20
2018-01-21T19:59:06.057Z,9.65
2018-01-21T20:01:34.446Z,10.63
2018-01-21T20:04:03.537Z,12.27
2018-01-21T20:06:31.880Z,11.03
2018-01-21T20:09:00.277Z,11.20
2018-01-21T20:11:28.587Z,16.97
2018-01-21T20:13:57.082Z,13.03
2018-01-21T20:16:25.427Z,19.73
2018-01-21T20:18:53.805Z,15.97
2018-01-21T20:21:22.817Z,14.82
2018-01-21T20:23:51.150Z,17.07
2018-01-21T20:26:19.513Z,19.83
2018-01-21T20:28:47.837Z,15.70
2018-01-21T20:31:16.310Z,18.10
2018-01-21T20:33:44.633Z,18.40
2018-01-21T20:36:12.996Z,21.08
2018-01-21T20:38:41.385Z,18.57
2018-01-21T20:41:09.807Z,22.87
2018-01-21T20:43:38.166Z,20.57
2018-01-21T20:46:06.571Z,21.03
2018-01-21T20:48:34.854Z,20.80
2018-01-21T20:51:08.933Z,19.50
2018-01-21T20:53:42.996Z,25.67
2018-01-21T20:56:11.382Z,23.00
2018-01-21T20:58:39.702Z,25.57
2018-01-21T21:01:08.198Z,31.12
2018-01-21T21:03:36.584Z,22.87
2018-01-21T21:06:04.925Z,25.30
2018-01-21T21:08:33.530Z,27.90
2018-01-21T21:11:01.874Z,20.73
2018-01-21T21:13:31.485Z,18.73
2018-01-21T21:15:59.830Z,28.70
2018-01-21T21:18:28.168Z,21.03
2018-01-21T21:20:56.558Z,24.77
2018-01-21T21:23:24.998Z,23.63
2018-01-21T21:25:53.935Z,26.43
2018-01-21T21:28:22.925Z,22.37
2018-01-21T21:30:51.330Z,18.43
2018-01-21T21:33:19.678Z,24.00
2018-01-21T21:35:48.029Z,21.00
2018-01-21T21:38:16.381Z,27.73
2018-01-21T21:40:45.786Z,16.77
2018-01-21T21:43:14.134Z,19.92
2018-01-21T21:45:42.507Z,16.58
2018-01-21T21:48:10.826Z,24.47
2018-01-21T21:50:39.346Z,15.40
2018-01-21T21:53:07.685Z,17.03
2018-01-21T21:55:36.085Z,16.40
2018-01-21T21:58:04.454Z,23.50
2018-01-21T22:00:33.105Z,20.35
2018-01-21T22:03:01.441Z,15.60
2018-01-21T22:05:29.785Z,21.03
2018-01-21T22:07:58.109Z,20.62
2018-01-21T22:10:26.883Z,22.07
2018-01-21T22:12:55.537Z,20.03
2018-01-21T22:15:23.885Z,21.33
2018-01-21T22:17:52.233Z,17.33
2018-01-21T22:20:20.553Z,20.17
2018-01-21T22:22:48.901Z,25.83
2018-01-21T22:25:17.231Z,21.40
2018-01-21T22:27:45.577Z,21.33
2018-01-21T22:30:13.901Z,29.43
2018-01-21T22:32:42.246Z,21.53
2018-01-21T22:35:10.569Z,22.43
2018-01-21T22:37:38.923Z,27.33
2018-01-21T22:40:07.256Z,23.50
2018-01-21T22:42:35.589Z,20.98
2018-01-21T22:45:03.913Z,22.95
2018-01-21T22:47:32.266Z,20.42
2018-01-21T22:50:00.594Z,24.92
2018-01-21T22:52:28.945Z,23.23
2018-01-21T22:54:57.261Z,21.20
2018-01-21T22:57:25.606Z,28.05
2018-01-21T22:59:53.949Z,21.62
2018-01-21T23:02:22.278Z,24.00
2018-01-21T23:04:50.601Z,24.35
2018-01-21T23:07:18.954Z,25.77
2018-01-21T23:09:47.277Z,28.90
2018-01-21T23:12:15.622Z,22.87
2018-01-21T23:14:43.949Z,25.85
2018-01-21T23:17:12.293Z,23.40
2018-01-21T23:19:40.617Z,22.23
2018-01-21T23:22:08.965Z,24.48
2018-01-21T23:24:37.289Z,23.70
2018-01-21T23:27:05.638Z,22.13
2018-01-21T23:29:33.962Z,27.33
2018-01-21T23:32:02.306Z,23.55
2018-01-21T23:34:30.634Z,22.00
2018-01-21T23:36:58.979Z,23.00
2018-01-21T23:39:27.301Z,28.75
2018-01-21T23:41:55.644Z,23.27
2018-01-21T23:44:23.969Z,22.58
2018-01-21T23:46:52.312Z,23.55
2018-01-21T23:49:20.637Z,18.50
2018-01-21T23:51:48.986Z,24.77
2018-01-21T23:54:17.306Z,26.95
2018-01-21T23:56:45.653Z,21.05
2018-01-21T23:59:13.973Z,21.40
